createdAt,value
2022-11-30T00:00:43.320Z,94.63
2022-11-30T00:01:43.261Z,94.53
2022-11-30T00:02:43.399Z,94.32
2022-11-30T00:03:43.250Z,94.32
2022-11-30T00:04:43.395Z,94.22
2022-11-30T00:05:43.222Z,94.16
2022-11-30T00:06:43.218Z,94.16
2022-11-30T00:07:43.262Z,94.26
2022-11-30T00:08:43.187Z,94.26
2022-11-30T00:09:43.186Z,94.26
2022-11-30T00:10:43.169Z,94.16
2022-11-30T00:11:43.161Z,94.16
2022-11-30T00:12:43.153Z,94.16
2022-11-30T00:13:43.174Z,94.26
2022-11-30T00:14:43.167Z,94.26
2022-11-30T00:15:43.111Z,94.26
2022-11-30T00:16:43.134Z,94.26
2022-11-30T00:17:43.091Z,94.26
2022-11-30T00:18:43.115Z,94.32
2022-11-30T00:19:43.077Z,94.32
2022-11-30T00:20:43.063Z,94.32
2022-11-30T00:21:43.037Z,94.12
2022-11-30T00:22:43.033Z,94.12
2022-11-30T00:23:43.066Z,94.12
2022-11-30T00:24:43.190Z,94.12
2022-11-30T00:25:43.004Z,94.12
2022-11-30T00:26:43.006Z,94.01
2022-11-30T00:27:42.976Z,93.91
2022-11-30T00:28:42.973Z,93.80
2022-11-30T00:29:42.962Z,93.60
2022-11-30T00:30:43.018Z,93.49
2022-11-30T00:31:42.930Z,93.54
2022-11-30T00:32:42.941Z,93.54
2022-11-30T00:33:42.921Z,93.64
2022-11-30T00:34:42.912Z,93.64
2022-11-30T00:35:42.914Z,93.74
2022-11-30T00:36:42.890Z,93.74
2022-11-30T00:37:42.872Z,93.64
2022-11-30T00:38:42.863Z,93.70
2022-11-30T00:39:42.849Z,93.64
2022-11-30T00:40:42.857Z,93.64
2022-11-30T00:41:42.832Z,93.64
2022-11-30T00:42:42.835Z,93.64
2022-11-30T00:43:42.806Z,93.64
2022-11-30T00:44:42.808Z,93.64
2022-11-30T00:45:42.892Z,93.64
2022-11-30T00:46:42.784Z,93.64
2022-11-30T00:47:42.768Z,93.64
2022-11-30T00:48:42.768Z,93.64
2022-11-30T00:49:42.746Z,93.54
2022-11-30T00:50:42.739Z,93.54
2022-11-30T00:51:42.750Z,93.64
2022-11-30T00:52:42.712Z,93.64
2022-11-30T00:53:42.712Z,93.74
2022-11-30T00:54:42.696Z,93.74
2022-11-30T00:55:42.697Z,93.74
2022-11-30T00:56:42.679Z,93.85
2022-11-30T00:57:42.663Z,93.85
2022-11-30T00:58:42.662Z,93.95
2022-11-30T00:59:42.631Z,93.95
2022-11-30T01:00:42.636Z,93.85
2022-11-30T01:01:42.641Z,93.74
2022-11-30T01:02:42.708Z,93.85
2022-11-30T01:03:42.612Z,93.85
2022-11-30T01:04:42.579Z,93.85
2022-11-30T01:05:42.567Z,93.95
2022-11-30T01:06:42.569Z,93.95
2022-11-30T01:07:42.617Z,93.95
2022-11-30T01:08:42.549Z,93.85
2022-11-30T01:09:42.518Z,93.85
2022-11-30T01:10:42.514Z,93.74
2022-11-30T01:11:42.505Z,93.74
2022-11-30T01:12:42.501Z,93.74
2022-11-30T01:13:42.482Z,93.85
2022-11-30T01:14:42.487Z,93.85
2022-11-30T01:15:42.520Z,93.85
2022-11-30T01:16:42.450Z,93.95
2022-11-30T01:17:42.445Z,93.85
2022-11-30T01:18:42.429Z,93.74
2022-11-30T01:19:42.427Z,93.74
2022-11-30T01:20:42.405Z,93.74
2022-11-30T01:21:42.399Z,93.85
2022-11-30T01:22:42.384Z,93.85
2022-11-30T01:23:42.370Z,93.74
2022-11-30T01:24:42.381Z,93.74
2022-11-30T01:25:42.339Z,93.64
2022-11-30T01:26:42.337Z,93.64
2022-11-30T01:27:42.325Z,93.64
2022-11-30T01:28:42.324Z,93.54
2022-11-30T01:29:42.325Z,93.43
2022-11-30T01:30:42.358Z,93.43
2022-11-30T01:31:42.280Z,93.33
2022-11-30T01:32:42.269Z,93.33
2022-11-30T01:33:42.258Z,93.33
2022-11-30T01:34:42.270Z,93.33
2022-11-30T01:35:42.232Z,93.33
2022-11-30T01:36:42.225Z,93.33
2022-11-30T01:37:42.218Z,93.33
2022-11-30T01:38:42.205Z,93.33
2022-11-30T01:39:42.215Z,93.43
2022-11-30T01:40:42.194Z,93.43
2022-11-30T01:41:42.171Z,93.33
2022-11-30T01:42:42.161Z,93.33
2022-11-30T01:43:42.154Z,93.33
2022-11-30T01:44:42.166Z,93.33
2022-11-30T01:45:42.130Z,93.33
2022-11-30T01:46:42.127Z,93.33
2022-11-30T01:47:42.100Z,93.23
2022-11-30T01:48:42.090Z,93.23
2022-11-30T01:49:42.099Z,93.23
2022-11-30T01:50:42.091Z,93.23
2022-11-30T01:51:42.067Z,93.12
2022-11-30T01:52:42.053Z,93.12
2022-11-30T01:53:42.037Z,93.12
2022-11-30T01:54:42.053Z,93.12
2022-11-30T01:55:42.012Z,93.02
2022-11-30T01:56:42.019Z,93.02
2022-11-30T01:57:42.006Z,92.91
2022-11-30T01:58:41.991Z,92.71
2022-11-30T01:59:42.007Z,92.71
2022-11-30T02:00:41.966Z,92.61
2022-11-30T02:01:41.989Z,92.61
2022-11-30T02:02:42.032Z,92.61
2022-11-30T02:03:41.926Z,92.50
2022-11-30T02:04:41.924Z,92.61
2022-11-30T02:05:41.934Z,92.40
2022-11-30T02:06:41.905Z,92.30
2022-11-30T02:07:42.051Z,92.30
2022-11-30T02:08:41.961Z,92.40
2022-11-30T02:09:41.868Z,92.50
2022-11-30T02:10:41.869Z,92.61
2022-11-30T02:11:41.859Z,92.71
2022-11-30T02:12:41.840Z,92.71
2022-11-30T02:13:41.816Z,92.81
2022-11-30T02:14:41.807Z,92.91
2022-11-30T02:15:41.858Z,92.91
2022-11-30T02:16:41.813Z,92.91
2022-11-30T02:17:41.776Z,92.91
2022-11-30T02:18:41.781Z,92.91
2022-11-30T02:19:41.755Z,92.91
2022-11-30T02:20:41.749Z,92.91
2022-11-30T02:21:41.747Z,92.81
2022-11-30T02:22:41.735Z,92.81
2022-11-30T02:23:41.877Z,92.71
2022-11-30T02:24:41.695Z,92.61
2022-11-30T02:25:41.693Z,92.65
2022-11-30T02:26:41.679Z,92.65
2022-11-30T02:27:41.684Z,92.76
2022-11-30T02:28:41.664Z,92.71
2022-11-30T02:29:41.649Z,92.81
2022-11-30T02:30:41.671Z,92.85
2022-11-30T02:31:41.661Z,92.76
2022-11-30T02:32:41.611Z,92.76
2022-11-30T02:33:41.618Z,92.85
2022-11-30T02:34:41.584Z,92.85
2022-11-30T02:35:41.583Z,92.96
2022-11-30T02:36:41.574Z,92.96
2022-11-30T02:37:41.563Z,92.96
2022-11-30T02:38:41.562Z,93.06
2022-11-30T02:39:41.544Z,93.06
2022-11-30T02:40:41.532Z,93.06
2022-11-30T02:41:41.516Z,92.91
2022-11-30T02:42:41.517Z,92.96
2022-11-30T02:43:41.497Z,92.76
2022-11-30T02:44:41.495Z,92.65
2022-11-30T02:45:41.474Z,92.65
2022-11-30T02:46:41.533Z,92.65
2022-11-30T02:47:41.452Z,92.76
2022-11-30T02:48:41.437Z,92.76
2022-11-30T02:49:41.441Z,92.85
2022-11-30T02:50:41.421Z,92.85
2022-11-30T02:51:41.409Z,92.85
2022-11-30T02:52:41.400Z,92.96
2022-11-30T02:53:41.392Z,92.96
2022-11-30T02:54:41.387Z,92.96
2022-11-30T02:55:41.370Z,92.96
2022-11-30T02:56:41.354Z,92.96
2022-11-30T02:57:41.340Z,92.85
2022-11-30T02:58:41.334Z,92.85
2022-11-30T02:59:41.338Z,92.76
2022-11-30T03:00:41.322Z,92.85
2022-11-30T03:01:41.372Z,92.85
2022-11-30T03:02:41.357Z,92.96
2022-11-30T03:03:41.285Z,92.96
2022-11-30T03:04:41.287Z,93.10
2022-11-30T03:05:41.270Z,93.06
2022-11-30T03:06:41.249Z,93.21
2022-11-30T03:07:41.304Z,93.16
2022-11-30T03:08:41.218Z,93.10
2022-11-30T03:09:41.206Z,93.06
2022-11-30T03:10:41.195Z,93.06
2022-11-30T03:11:41.197Z,93.06
2022-11-30T03:12:41.176Z,93.10
2022-11-30T03:13:41.169Z,93.06
2022-11-30T03:14:41.155Z,92.96
2022-11-30T03:15:41.187Z,93.00
2022-11-30T03:16:41.141Z,93.00
2022-11-30T03:17:41.130Z,93.10
2022-11-30T03:18:41.111Z,93.10
2022-11-30T03:19:41.101Z,93.21
2022-11-30T03:20:41.088Z,93.21
2022-11-30T03:21:41.088Z,93.31
2022-11-30T03:22:41.071Z,93.31
2022-11-30T03:23:41.062Z,93.41
2022-11-30T03:24:41.043Z,93.31
2022-11-30T03:25:41.043Z,93.21
2022-11-30T03:26:41.068Z,93.31
2022-11-30T03:27:41.014Z,93.31
2022-11-30T03:28:41.004Z,93.21
2022-11-30T03:29:40.994Z,93.21
2022-11-30T03:30:40.983Z,93.00
2022-11-30T03:31:40.972Z,93.00
2022-11-30T03:32:40.980Z,93.00
2022-11-30T03:33:40.943Z,93.00
2022-11-30T03:34:40.954Z,93.00
2022-11-30T03:35:40.928Z,93.10
2022-11-30T03:36:40.915Z,93.10
2022-11-30T03:37:40.905Z,93.06
2022-11-30T03:38:40.893Z,93.06
2022-11-30T03:39:40.892Z,92.96
2022-11-30T03:40:40.869Z,92.85
2022-11-30T03:41:40.857Z,92.80
2022-11-30T03:42:40.846Z,92.69
2022-11-30T03:43:40.835Z,92.69
2022-11-30T03:44:40.839Z,92.80
2022-11-30T03:45:40.806Z,92.90
2022-11-30T03:46:40.896Z,93.00
2022-11-30T03:47:40.789Z,92.85
2022-11-30T03:48:40.789Z,92.85
2022-11-30T03:49:40.781Z,92.76
2022-11-30T03:50:40.773Z,92.80
2022-11-30T03:51:40.766Z,92.69
2022-11-30T03:52:40.733Z,92.80
2022-11-30T03:53:40.717Z,92.80
2022-11-30T03:54:40.718Z,92.90
2022-11-30T03:55:40.714Z,92.90
2022-11-30T03:56:40.698Z,93.10
2022-11-30T03:57:40.676Z,93.10
2022-11-30T03:58:40.670Z,93.00
2022-11-30T03:59:40.659Z,93.10
2022-11-30T04:00:40.660Z,93.10
2022-11-30T04:01:40.682Z,93.00
2022-11-30T04:02:44.735Z,92.90
2022-11-30T04:03:40.615Z,92.90
2022-11-30T04:04:40.608Z,92.90
2022-11-30T04:05:40.768Z,92.90
2022-11-30T04:06:40.604Z,92.90
2022-11-30T04:07:40.594Z,92.76
2022-11-30T04:08:40.626Z,92.59
2022-11-30T04:09:40.557Z,92.38
2022-11-30T04:10:40.537Z,92.49
2022-11-30T04:11:40.533Z,92.59
2022-11-30T04:12:40.514Z,92.59
2022-11-30T04:13:40.526Z,92.59
2022-11-30T04:14:40.499Z,92.59
2022-11-30T04:15:40.518Z,92.59
2022-11-30T04:16:40.621Z,92.69
2022-11-30T04:17:40.457Z,92.69
2022-11-30T04:18:40.459Z,92.80
2022-11-30T04:19:40.438Z,92.80
2022-11-30T04:20:40.863Z,92.69
2022-11-30T04:21:40.448Z,92.69
2022-11-30T04:22:40.413Z,92.80
2022-11-30T04:23:40.391Z,92.90
2022-11-30T04:24:40.386Z,92.90
2022-11-30T04:25:40.373Z,92.80
2022-11-30T04:26:40.366Z,92.80
2022-11-30T04:27:40.338Z,92.69
2022-11-30T04:28:40.404Z,92.69
2022-11-30T04:29:40.323Z,92.49
2022-11-30T04:30:40.320Z,92.59
2022-11-30T04:31:40.391Z,92.59
2022-11-30T04:32:40.298Z,92.69
2022-11-30T04:33:40.296Z,92.69
2022-11-30T04:34:40.269Z,92.69
2022-11-30T04:35:40.255Z,92.59
2022-11-30T04:36:40.255Z,92.59
2022-11-30T04:37:40.232Z,92.59
2022-11-30T04:38:40.232Z,92.59
2022-11-30T04:39:40.221Z,92.59
2022-11-30T04:40:40.200Z,92.49
2022-11-30T04:41:40.182Z,92.49
2022-11-30T04:42:40.189Z,92.38
2022-11-30T04:43:40.183Z,92.38
2022-11-30T04:44:40.172Z,92.38
2022-11-30T04:45:40.150Z,92.38
2022-11-30T04:46:40.187Z,92.38
2022-11-30T04:47:40.126Z,92.49
2022-11-30T04:48:40.125Z,92.49
2022-11-30T04:49:40.106Z,92.49
2022-11-30T04:50:40.101Z,92.49
2022-11-30T04:51:40.071Z,92.49
2022-11-30T04:52:40.071Z,92.49
2022-11-30T04:53:40.071Z,92.49
2022-11-30T04:54:40.049Z,92.49
2022-11-30T04:55:40.054Z,92.59
2022-11-30T04:56:40.032Z,92.59
2022-11-30T04:57:40.029Z,92.59
2022-11-30T04:58:40.047Z,92.38
2022-11-30T04:59:40.010Z,92.18
2022-11-30T05:00:39.996Z,92.28
2022-11-30T05:01:39.982Z,92.28
2022-11-30T05:02:39.970Z,92.28
2022-11-30T05:03:39.949Z,92.28
2022-11-30T05:04:39.994Z,92.28
2022-11-30T05:05:39.928Z,92.38
2022-11-30T05:06:39.922Z,92.38
2022-11-30T05:07:39.960Z,92.28
2022-11-30T05:08:39.888Z,92.28
2022-11-30T05:09:39.879Z,92.28
2022-11-30T05:10:39.868Z,92.28
2022-11-30T05:11:39.894Z,92.28
2022-11-30T05:12:39.846Z,92.38
2022-11-30T05:13:39.835Z,92.38
2022-11-30T05:14:39.847Z,92.28
2022-11-30T05:15:39.823Z,92.18
2022-11-30T05:16:39.863Z,92.18
2022-11-30T05:17:39.796Z,92.07
2022-11-30T05:18:39.780Z,92.07
2022-11-30T05:19:39.773Z,92.18
2022-11-30T05:20:39.762Z,92.28
2022-11-30T05:21:45.312Z,92.28
2022-11-30T05:22:39.737Z,92.28
2022-11-30T05:23:39.736Z,92.28
2022-11-30T05:24:39.713Z,92.38
2022-11-30T05:25:39.704Z,92.38
2022-11-30T05:26:39.734Z,92.38
2022-11-30T05:27:39.685Z,92.38
2022-11-30T05:28:39.678Z,92.38
2022-11-30T05:29:39.657Z,92.38
2022-11-30T05:30:39.650Z,92.38
2022-11-30T05:31:39.703Z,92.38
2022-11-30T05:32:39.638Z,92.38
2022-11-30T05:33:39.614Z,92.38
2022-11-30T05:34:50.182Z,92.49
2022-11-30T05:35:39.593Z,92.49
2022-11-30T05:36:39.578Z,92.49
2022-11-30T05:37:39.617Z,92.49
2022-11-30T05:38:39.576Z,92.38
2022-11-30T05:39:39.548Z,92.38
2022-11-30T05:40:39.541Z,92.32
2022-11-30T05:41:39.535Z,92.38
2022-11-30T05:42:39.526Z,92.49
2022-11-30T05:43:39.512Z,92.49
2022-11-30T05:44:39.504Z,92.49
2022-11-30T05:45:39.484Z,92.49
2022-11-30T05:46:41.058Z,92.38
2022-11-30T05:47:39.458Z,92.28
2022-11-30T05:48:39.451Z,92.28
2022-11-30T05:49:39.436Z,92.28
2022-11-30T05:50:39.451Z,92.28
2022-11-30T05:51:39.434Z,92.28
2022-11-30T05:52:39.403Z,92.28
2022-11-30T05:53:39.392Z,92.28
2022-11-30T05:54:39.415Z,92.18
2022-11-30T05:55:39.382Z,92.07
2022-11-30T05:56:39.368Z,91.97
2022-11-30T05:57:39.355Z,91.97
2022-11-30T05:58:39.346Z,92.11
2022-11-30T05:59:39.350Z,92.18
2022-11-30T06:00:39.327Z,92.32
2022-11-30T06:01:39.433Z,92.53
2022-11-30T06:02:39.426Z,92.49
2022-11-30T06:03:39.286Z,92.49
2022-11-30T06:04:39.281Z,92.49
2022-11-30T06:05:39.262Z,92.28
2022-11-30T06:06:39.253Z,92.32
2022-11-30T06:07:39.235Z,92.28
2022-11-30T06:08:39.265Z,92.38
2022-11-30T06:09:39.210Z,92.28
2022-11-30T06:10:39.204Z,92.18
2022-11-30T06:11:39.213Z,92.32
2022-11-30T06:12:39.187Z,92.32
2022-11-30T06:13:39.169Z,92.32
2022-11-30T06:14:39.163Z,92.32
2022-11-30T06:15:39.152Z,92.32
2022-11-30T06:16:39.329Z,92.32
2022-11-30T06:17:39.140Z,92.32
2022-11-30T06:18:39.138Z,92.32
2022-11-30T06:19:39.101Z,92.28
2022-11-30T06:20:39.094Z,92.28
2022-11-30T06:21:39.117Z,92.43
2022-11-30T06:22:39.082Z,92.28
2022-11-30T06:23:39.056Z,92.18
2022-11-30T06:24:39.063Z,92.11
2022-11-30T06:25:39.028Z,92.07
2022-11-30T06:26:39.084Z,92.11
2022-11-30T06:27:39.032Z,92.11
2022-11-30T06:28:39.021Z,92.18
2022-11-30T06:29:38.991Z,92.18
2022-11-30T06:30:38.996Z,92.07
2022-11-30T06:31:39.008Z,92.07
2022-11-30T06:32:38.984Z,92.07
2022-11-30T06:33:38.960Z,92.07
2022-11-30T06:34:38.955Z,92.07
2022-11-30T06:35:38.943Z,91.97
2022-11-30T06:36:38.948Z,91.97
2022-11-30T06:37:38.894Z,91.97
2022-11-30T06:38:38.917Z,91.76
2022-11-30T06:40:08.296Z,91.76
2022-11-30T06:40:38.883Z,91.76
2022-11-30T06:41:38.870Z,91.76
2022-11-30T06:42:38.854Z,91.86
2022-11-30T06:43:38.837Z,91.91
2022-11-30T06:44:38.828Z,91.80
2022-11-30T06:45:38.842Z,91.80
2022-11-30T06:46:38.808Z,91.80
2022-11-30T06:47:38.786Z,91.91
2022-11-30T06:48:38.794Z,92.01
2022-11-30T06:49:38.776Z,92.07
2022-11-30T06:50:38.774Z,92.07
2022-11-30T06:51:38.768Z,92.07
2022-11-30T06:52:38.739Z,92.07
2022-11-30T06:53:38.721Z,91.97
2022-11-30T06:54:38.733Z,91.97
2022-11-30T06:55:38.708Z,91.86
2022-11-30T06:56:38.704Z,91.66
2022-11-30T06:57:38.695Z,91.66
2022-11-30T06:58:38.683Z,91.55
2022-11-30T06:59:38.666Z,91.55
2022-11-30T07:00:38.704Z,91.55
2022-11-30T07:01:38.635Z,91.55
2022-11-30T07:02:38.627Z,91.55
2022-11-30T07:03:38.621Z,91.45
2022-11-30T07:04:38.616Z,91.35
2022-11-30T07:05:38.605Z,91.45
2022-11-30T07:06:38.596Z,91.55
2022-11-30T07:07:38.602Z,91.66
2022-11-30T07:08:38.567Z,91.66
2022-11-30T07:09:38.553Z,91.76
2022-11-30T07:10:38.540Z,91.76
2022-11-30T07:11:38.543Z,91.86
2022-11-30T07:12:38.517Z,91.76
2022-11-30T07:13:38.500Z,91.55
2022-11-30T07:14:38.495Z,91.45
2022-11-30T07:15:38.481Z,91.35
2022-11-30T07:16:38.527Z,91.35
2022-11-30T07:17:38.465Z,91.35
2022-11-30T07:18:38.445Z,91.35
2022-11-30T07:19:38.431Z,91.45
2022-11-30T07:20:38.438Z,91.45
2022-11-30T07:21:38.425Z,91.55
2022-11-30T07:22:38.412Z,91.55
2022-11-30T07:23:38.394Z,91.45
2022-11-30T07:24:38.387Z,91.24
2022-11-30T07:25:38.373Z,91.24
2022-11-30T07:26:38.377Z,91.24
2022-11-30T07:27:38.352Z,91.24
2022-11-30T07:28:38.340Z,91.35
2022-11-30T07:29:38.326Z,91.45
2022-11-30T07:30:38.325Z,91.24
2022-11-30T07:31:38.371Z,91.03
2022-11-30T07:32:38.383Z,91.03
2022-11-30T07:33:38.280Z,91.03
2022-11-30T07:34:38.274Z,91.14
2022-11-30T07:35:38.258Z,91.24
2022-11-30T07:36:38.297Z,91.35
2022-11-30T07:37:38.246Z,91.24
2022-11-30T07:38:38.253Z,90.93
2022-11-30T07:39:38.211Z,91.03
2022-11-30T07:40:38.226Z,91.14
2022-11-30T07:41:38.191Z,91.03
2022-11-30T07:42:38.181Z,91.03
2022-11-30T07:43:38.191Z,91.03
2022-11-30T07:44:38.181Z,90.93
2022-11-30T07:45:38.189Z,90.93
2022-11-30T07:46:38.140Z,90.93
2022-11-30T07:47:38.138Z,90.83
2022-11-30T07:48:38.123Z,90.83
2022-11-30T07:49:38.123Z,90.72
2022-11-30T07:50:38.120Z,90.62
2022-11-30T07:51:38.091Z,90.62
2022-11-30T07:52:38.072Z,90.58
2022-11-30T07:53:38.074Z,90.68
2022-11-30T07:54:38.062Z,90.58
2022-11-30T07:55:38.047Z,90.47
2022-11-30T07:56:38.030Z,90.47
2022-11-30T07:57:38.018Z,90.58
2022-11-30T07:58:38.033Z,90.47
2022-11-30T07:59:38.000Z,90.47
2022-11-30T08:00:37.998Z,90.37
2022-11-30T08:01:38.114Z,90.26
2022-11-30T08:02:37.979Z,90.26
2022-11-30T08:03:37.956Z,90.16
2022-11-30T08:04:37.998Z,90.16
2022-11-30T08:05:37.937Z,90.26
2022-11-30T08:06:37.949Z,90.16
2022-11-30T08:07:37.953Z,90.16
2022-11-30T08:08:37.898Z,90.06
2022-11-30T08:09:37.886Z,89.96
2022-11-30T08:10:37.879Z,89.96
2022-11-30T08:11:37.879Z,89.96
2022-11-30T08:12:37.854Z,89.86
2022-11-30T08:13:37.849Z,89.65
2022-11-30T08:15:03.617Z,89.65
2022-11-30T08:15:38.289Z,89.65
2022-11-30T08:16:37.892Z,89.75
2022-11-30T08:17:37.802Z,89.75
2022-11-30T08:18:37.801Z,89.75
2022-11-30T08:19:37.787Z,89.75
2022-11-30T08:20:37.769Z,89.54
2022-11-30T08:21:37.781Z,89.54
2022-11-30T08:22:37.748Z,89.65
2022-11-30T08:23:37.794Z,89.75
2022-11-30T08:24:37.735Z,89.71
2022-11-30T08:25:37.725Z,89.50
2022-11-30T08:26:37.704Z,89.40
2022-11-30T08:27:37.693Z,89.29
2022-11-30T08:28:37.679Z,89.19
2022-11-30T08:29:37.685Z,89.19
2022-11-30T08:30:37.723Z,89.29
2022-11-30T08:31:37.762Z,89.29
2022-11-30T08:32:37.631Z,89.29
2022-11-30T08:33:37.632Z,89.40
2022-11-30T08:34:37.617Z,89.29
2022-11-30T08:35:37.611Z,89.19
2022-11-30T08:36:37.624Z,88.88
2022-11-30T08:37:37.604Z,88.78
2022-11-30T08:38:37.570Z,88.16
2022-11-30T08:39:37.560Z,88.26
2022-11-30T08:40:37.545Z,88.36
2022-11-30T08:41:37.564Z,88.46
2022-11-30T08:42:37.536Z,88.46
2022-11-30T08:43:37.519Z,88.57
2022-11-30T08:44:37.502Z,88.46
2022-11-30T08:45:37.497Z,88.36
2022-11-30T08:46:53.216Z,88.46
2022-11-30T08:47:37.537Z,88.57
2022-11-30T08:48:37.468Z,88.67
2022-11-30T08:49:37.517Z,88.67
2022-11-30T08:50:37.444Z,88.46
2022-11-30T08:52:00.847Z,88.16
2022-11-30T08:52:37.426Z,88.06
2022-11-30T08:53:37.446Z,87.95
2022-11-30T08:54:37.409Z,88.06
2022-11-30T08:55:37.382Z,88.16
2022-11-30T08:56:37.386Z,88.06
2022-11-30T08:57:37.377Z,87.95
2022-11-30T08:58:37.407Z,88.06
2022-11-30T08:59:37.355Z,88.06
2022-11-30T09:00:37.340Z,88.12
2022-11-30T09:01:37.323Z,88.12
2022-11-30T09:02:37.386Z,87.70
2022-11-30T09:03:37.308Z,87.60
2022-11-30T09:04:37.300Z,87.49
2022-11-30T09:05:37.289Z,87.49
2022-11-30T09:06:37.307Z,87.49
2022-11-30T09:07:37.368Z,87.49
2022-11-30T09:08:40.926Z,87.29
2022-11-30T09:09:37.238Z,87.39
2022-11-30T09:10:37.231Z,87.39
2022-11-30T09:11:37.222Z,87.49
2022-11-30T09:12:37.217Z,87.49
2022-11-30T09:13:37.202Z,87.49
2022-11-30T09:14:37.184Z,87.49
2022-11-30T09:15:37.212Z,87.39
2022-11-30T09:16:37.151Z,87.08
2022-11-30T09:17:37.159Z,87.18
2022-11-30T09:18:37.146Z,86.98
2022-11-30T09:19:37.156Z,86.88
2022-11-30T09:20:37.135Z,86.67
2022-11-30T09:21:37.114Z,86.67
2022-11-30T09:22:37.096Z,86.88
2022-11-30T09:23:37.078Z,87.08
2022-11-30T09:24:37.106Z,86.88
2022-11-30T09:25:37.052Z,86.88
2022-11-30T09:26:37.051Z,86.98
2022-11-30T09:27:37.041Z,87.08
2022-11-30T09:28:37.031Z,87.18
2022-11-30T09:29:37.020Z,87.29
2022-11-30T09:30:37.049Z,87.29
2022-11-30T09:31:36.999Z,87.39
2022-11-30T09:32:37.017Z,87.49
2022-11-30T09:33:36.994Z,87.29
2022-11-30T09:34:36.974Z,87.18
2022-11-30T09:35:36.961Z,87.18
2022-11-30T09:36:36.955Z,87.15
2022-11-30T09:37:36.946Z,87.08
2022-11-30T09:38:36.928Z,86.83
2022-11-30T09:39:36.917Z,86.73
2022-11-30T09:40:36.937Z,86.73
2022-11-30T09:41:36.886Z,86.63
2022-11-30T09:42:36.884Z,86.52
2022-11-30T09:43:36.874Z,86.42
2022-11-30T09:44:36.858Z,86.42
2022-11-30T09:45:36.845Z,86.32
2022-11-30T09:46:36.905Z,86.42
2022-11-30T09:47:36.842Z,86.52
2022-11-30T09:48:36.826Z,86.52
2022-11-30T09:49:36.809Z,86.52
2022-11-30T09:50:36.801Z,86.28
2022-11-30T09:51:36.782Z,86.18
2022-11-30T09:52:36.980Z,86.07
2022-11-30T09:53:36.756Z,85.66
2022-11-30T09:54:36.742Z,85.24
2022-11-30T09:55:36.764Z,85.24
2022-11-30T09:56:36.726Z,85.24
2022-11-30T09:57:36.725Z,85.35
2022-11-30T09:58:36.725Z,85.24
2022-11-30T09:59:36.751Z,85.24
2022-11-30T10:00:36.704Z,85.14
2022-11-30T10:01:37.857Z,85.14
2022-11-30T10:02:36.736Z,85.24
2022-11-30T10:03:36.711Z,85.24
2022-11-30T10:04:36.692Z,85.10
2022-11-30T10:05:36.630Z,85.10
2022-11-30T10:06:36.622Z,85.10
2022-11-30T10:07:36.632Z,84.89
2022-11-30T10:08:36.647Z,84.48
2022-11-30T10:09:36.574Z,84.48
2022-11-30T10:10:36.587Z,84.69
2022-11-30T10:11:36.560Z,84.69
2022-11-30T10:12:36.562Z,84.75
2022-11-30T10:13:36.559Z,84.55
2022-11-30T10:14:36.534Z,84.34
2022-11-30T10:15:36.551Z,84.03
2022-11-30T10:16:36.504Z,83.83
2022-11-30T10:17:36.491Z,83.72
2022-11-30T10:18:36.544Z,83.62
2022-11-30T10:19:36.503Z,83.27
2022-11-30T10:20:36.455Z,83.00
2022-11-30T10:21:36.452Z,82.69
2022-11-30T10:22:36.444Z,83.00
2022-11-30T10:23:36.430Z,83.10
2022-11-30T10:24:36.441Z,83.00
2022-11-30T10:25:36.404Z,83.10
2022-11-30T10:26:36.407Z,83.20
2022-11-30T10:27:36.426Z,83.31
2022-11-30T10:28:51.845Z,83.20
2022-11-30T10:29:36.377Z,83.41
2022-11-30T10:30:36.343Z,83.41
2022-11-30T10:31:36.366Z,83.41
2022-11-30T10:32:36.328Z,83.20
2022-11-30T10:33:38.653Z,83.31
2022-11-30T10:34:36.351Z,83.41
2022-11-30T10:35:36.299Z,83.51
2022-11-30T10:36:36.286Z,83.51
2022-11-30T10:37:36.272Z,83.20
2022-11-30T10:38:36.275Z,82.89
2022-11-30T10:39:36.280Z,82.79
2022-11-30T10:40:36.250Z,82.89
2022-11-30T10:41:36.234Z,83.00
2022-11-30T10:42:36.224Z,83.06
2022-11-30T10:43:36.202Z,83.06
2022-11-30T10:44:36.199Z,82.96
2022-11-30T10:45:36.195Z,82.86
2022-11-30T10:46:36.187Z,82.65
2022-11-30T10:47:36.158Z,82.55
2022-11-30T10:48:36.157Z,82.45
2022-11-30T10:49:36.142Z,82.40
2022-11-30T10:50:36.146Z,82.20
2022-11-30T10:51:36.133Z,82.10
2022-11-30T10:52:36.114Z,82.10
2022-11-30T10:53:36.101Z,82.30
2022-11-30T10:54:36.096Z,82.30
2022-11-30T10:55:36.077Z,82.10
2022-11-30T10:56:36.069Z,82.10
2022-11-30T10:57:36.073Z,82.20
2022-11-30T10:58:36.067Z,81.99
2022-11-30T10:59:36.097Z,81.99
2022-11-30T11:00:36.038Z,81.68
2022-11-30T11:01:36.108Z,81.79
2022-11-30T11:02:36.098Z,81.68
2022-11-30T11:03:36.029Z,81.48
2022-11-30T11:04:35.987Z,81.27
2022-11-30T11:05:35.981Z,81.13
2022-11-30T11:06:36.007Z,80.96
2022-11-30T11:07:36.049Z,80.96
2022-11-30T11:08:35.936Z,80.96
2022-11-30T11:09:35.934Z,80.76
2022-11-30T11:10:35.934Z,80.86
2022-11-30T11:11:35.923Z,81.07
2022-11-30T11:12:35.897Z,80.96
2022-11-30T11:13:35.885Z,80.86
2022-11-30T11:14:38.099Z,80.96
2022-11-30T11:15:35.986Z,81.21
2022-11-30T11:16:35.857Z,81.41
2022-11-30T11:17:35.845Z,81.51
2022-11-30T11:18:35.826Z,81.62
2022-11-30T11:19:35.820Z,81.62
2022-11-30T11:20:35.835Z,81.58
2022-11-30T11:21:35.815Z,81.58
2022-11-30T11:22:35.800Z,81.58
2022-11-30T11:23:35.778Z,81.37
2022-11-30T11:24:36.031Z,81.27
2022-11-30T11:25:35.758Z,81.17
2022-11-30T11:26:35.760Z,81.13
2022-11-30T11:27:38.677Z,81.13
2022-11-30T11:28:35.734Z,80.82
2022-11-30T11:29:35.724Z,80.62
2022-11-30T11:30:35.742Z,80.30
2022-11-30T11:31:35.842Z,80.30
2022-11-30T11:32:35.714Z,80.30
2022-11-30T11:33:35.668Z,80.20
2022-11-30T11:34:35.661Z,80.20
2022-11-30T11:35:35.638Z,80.34
2022-11-30T11:36:35.659Z,80.76
2022-11-30T11:37:35.629Z,80.76
2022-11-30T11:38:35.612Z,80.86
2022-11-30T11:39:35.608Z,80.72
2022-11-30T11:40:35.597Z,80.41
2022-11-30T11:41:35.578Z,80.51
2022-11-30T11:42:35.577Z,80.62
2022-11-30T11:43:35.546Z,80.72
2022-11-30T11:44:35.541Z,80.82
2022-11-30T11:45:35.537Z,80.82
2022-11-30T11:46:35.560Z,80.58
2022-11-30T11:47:35.515Z,80.68
2022-11-30T11:48:35.503Z,80.68
2022-11-30T11:49:35.505Z,80.79
2022-11-30T11:51:06.129Z,80.99
2022-11-30T11:51:35.465Z,81.09
2022-11-30T11:52:35.475Z,81.09
2022-11-30T11:53:41.384Z,80.99
2022-11-30T11:54:35.485Z,80.89
2022-11-30T11:55:35.463Z,80.89
2022-11-30T11:56:35.437Z,80.79
2022-11-30T11:57:35.453Z,80.68
2022-11-30T11:58:35.379Z,80.79
2022-11-30T11:59:35.394Z,80.79
2022-11-30T12:00:35.364Z,80.79
2022-11-30T12:01:40.399Z,80.68
2022-11-30T12:02:35.431Z,80.58
2022-11-30T12:03:35.340Z,80.68
2022-11-30T12:04:35.406Z,80.79
2022-11-30T12:05:35.315Z,80.58
2022-11-30T12:06:35.295Z,80.68
2022-11-30T12:07:35.396Z,80.79
2022-11-30T12:08:35.284Z,80.89
2022-11-30T12:09:35.274Z,80.89
2022-11-30T12:10:52.556Z,80.89
2022-11-30T12:11:35.253Z,80.89
2022-11-30T12:12:35.238Z,80.99
2022-11-30T12:13:35.222Z,80.99
2022-11-30T12:14:35.233Z,81.09
2022-11-30T12:15:35.220Z,81.09
2022-11-30T12:16:35.310Z,81.09
2022-11-30T12:17:35.225Z,80.89
2022-11-30T12:18:35.170Z,80.79
2022-11-30T12:19:35.165Z,80.79
2022-11-30T12:20:35.177Z,80.68
2022-11-30T12:21:35.173Z,80.79
2022-11-30T12:22:35.129Z,80.79
2022-11-30T12:23:35.159Z,80.89
2022-11-30T12:24:35.137Z,81.09
2022-11-30T12:25:35.124Z,81.20
2022-11-30T12:26:35.111Z,81.30
2022-11-30T12:27:35.091Z,81.40
2022-11-30T12:28:35.059Z,81.30
2022-11-30T12:29:35.065Z,81.09
2022-11-30T12:30:35.029Z,81.09
2022-11-30T12:31:35.173Z,81.20
2022-11-30T12:32:35.007Z,81.09
2022-11-30T12:33:35.070Z,80.99
2022-11-30T12:34:35.000Z,80.99
2022-11-30T12:35:34.978Z,80.79
2022-11-30T12:36:34.974Z,80.89
2022-11-30T12:37:34.961Z,80.79
2022-11-30T12:38:34.969Z,80.58
2022-11-30T12:39:34.948Z,80.68
2022-11-30T12:40:35.008Z,80.68
2022-11-30T12:41:34.946Z,80.79
2022-11-30T12:42:34.890Z,80.89
2022-11-30T12:43:34.905Z,80.68
2022-11-30T12:44:41.638Z,80.68
2022-11-30T12:45:34.870Z,80.79
2022-11-30T12:46:34.933Z,80.58
2022-11-30T12:47:34.836Z,80.68
2022-11-30T12:48:34.919Z,80.79
2022-11-30T12:49:34.840Z,80.79
2022-11-30T12:50:34.808Z,80.79
2022-11-30T12:51:34.826Z,80.47
2022-11-30T12:52:34.789Z,80.47